Edgemont, South Dakota
Current Conditions -  °F | °C
As of 2:53 AM on Friday 21 Nov 2014 (Local Time) from KCUT Reporting Station
Overcast Overcast  
Wind Chill: 32°   Ceiling: 9000
Heat Index: 37°   Visibility: 10mi
Dew Point: 20°   Wind: 7mph
Humidity: 50%   Direction: 250°WSW
Pressure: 29.86"   Gusts: NA
Location:  43.3°N, 103.83°W
Report Text: KCUT 210953Z AUTO 25006KT 10SM OVC090 03/M07 A2986 RMK AO2 SLP105 T00281067
Loading
Personal Weather Stations






























Interactive Weather Map New forecast layout! Learn more

10-Day Weather Forecast

Advertisements
Track Severe Weather on mobile